createdAt,value
2022-12-19T00:01:51.696Z,80.56
2022-12-19T00:04:08.817Z,80.33
2022-12-19T00:06:22.283Z,80.41
2022-12-19T00:08:34.075Z,80.00
2022-12-19T00:10:57.946Z,80.11
2022-12-19T00:13:09.633Z,80.25
2022-12-19T00:15:21.833Z,80.10
2022-12-19T00:17:33.969Z,80.26
2022-12-19T00:19:49.005Z,79.95
2022-12-19T00:22:00.996Z,80.00
2022-12-19T00:24:20.586Z,79.65
2022-12-19T00:26:36.893Z,79.93
2022-12-19T00:28:51.826Z,79.38
2022-12-19T00:31:05.089Z,79.35
2022-12-19T00:33:17.145Z,79.52
2022-12-19T00:35:28.832Z,78.91
2022-12-19T00:37:42.814Z,79.49
2022-12-19T00:40:01.832Z,79.46
2022-12-19T00:42:13.623Z,79.30
2022-12-19T00:44:27.055Z,78.91
2022-12-19T00:46:39.252Z,79.02
2022-12-19T00:48:52.168Z,79.24
2022-12-19T00:51:08.360Z,78.71
2022-12-19T00:53:20.354Z,79.19
2022-12-19T00:55:32.247Z,78.76
2022-12-19T00:57:44.344Z,78.84
2022-12-19T00:59:56.441Z,78.80
2022-12-19T01:02:10.512Z,78.87
2022-12-19T01:04:31.274Z,78.73
2022-12-19T01:06:45.026Z,79.14
2022-12-19T01:08:57.527Z,78.95
2022-12-19T01:11:09.623Z,78.55
2022-12-19T01:13:27.350Z,78.70
2022-12-19T01:15:41.328Z,78.96
2022-12-19T01:17:53.399Z,78.72
2022-12-19T01:20:05.794Z,78.86
2022-12-19T01:22:18.404Z,78.60
2022-12-19T01:24:31.115Z,78.54
2022-12-19T01:26:43.315Z,78.93
2022-12-19T01:28:55.143Z,78.65
2022-12-19T01:31:07.308Z,78.55
2022-12-19T01:33:21.347Z,78.67
2022-12-19T01:35:33.143Z,79.13
2022-12-19T01:37:45.440Z,78.58
2022-12-19T01:39:57.125Z,78.62
2022-12-19T01:42:23.522Z,78.50
2022-12-19T01:44:36.783Z,78.66
2022-12-19T01:46:52.976Z,78.16
2022-12-19T01:49:10.603Z,78.33
2022-12-19T01:51:33.860Z,77.99
2022-12-19T01:53:53.126Z,78.19
2022-12-19T01:56:08.508Z,78.43
2022-12-19T01:58:21.076Z,78.27
2022-12-19T02:00:32.791Z,77.80
2022-12-19T02:02:52.749Z,78.11
2022-12-19T02:05:05.970Z,78.11
2022-12-19T02:07:20.213Z,77.84
2022-12-19T02:09:32.831Z,78.00
2022-12-19T02:11:44.723Z,78.23
2022-12-19T02:14:00.820Z,78.32
2022-12-19T02:16:30.916Z,77.84
2022-12-19T02:18:46.305Z,77.95
2022-12-19T02:21:06.190Z,77.74
2022-12-19T02:23:39.996Z,77.58
2022-12-19T02:26:18.819Z,77.90
2022-12-19T02:29:02.929Z,78.52
2022-12-19T02:31:31.025Z,77.86
2022-12-19T02:33:56.184Z,77.82
2022-12-19T02:36:16.150Z,77.68
2022-12-19T02:38:41.080Z,77.86
2022-12-19T02:41:10.535Z,77.87
2022-12-19T02:43:24.887Z,76.91
2022-12-19T02:45:39.807Z,77.77
2022-12-19T02:47:52.057Z,76.80
2022-12-19T02:50:05.814Z,77.31
2022-12-19T02:52:20.345Z,77.23
2022-12-19T02:54:34.290Z,77.73
2022-12-19T02:57:00.619Z,77.24
2022-12-19T02:59:24.186Z,77.29
2022-12-19T03:01:42.344Z,77.35
2022-12-19T03:04:17.672Z,77.19
2022-12-19T03:06:42.874Z,77.09
2022-12-19T03:09:04.393Z,76.87
2022-12-19T03:11:16.592Z,77.05
2022-12-19T03:13:40.062Z,77.38
2022-12-19T03:15:52.773Z,77.13
2022-12-19T03:18:06.609Z,77.30
2022-12-19T03:20:44.406Z,76.90
2022-12-19T03:22:56.199Z,77.30
2022-12-19T03:25:08.679Z,77.51
2022-12-19T03:27:33.399Z,77.41
2022-12-19T03:30:00.652Z,77.71
2022-12-19T03:32:15.546Z,77.31
2022-12-19T03:34:32.741Z,77.36
2022-12-19T03:36:48.935Z,77.23
2022-12-19T03:39:04.403Z,77.21
2022-12-19T03:41:39.541Z,77.41
2022-12-19T03:43:51.537Z,77.02
2022-12-19T03:46:14.382Z,77.04
2022-12-19T03:48:43.613Z,77.31
2022-12-19T03:51:08.484Z,77.31
2022-12-19T03:53:30.615Z,77.57
2022-12-19T03:55:49.877Z,77.75
2022-12-19T03:58:12.215Z,77.10
2022-12-19T04:00:26.364Z,77.11
2022-12-19T04:02:40.811Z,77.52
2022-12-19T04:04:58.932Z,77.52
2022-12-19T04:07:12.901Z,77.24
2022-12-19T04:09:25.101Z,77.34
2022-12-19T04:11:44.288Z,77.45
2022-12-19T04:14:01.378Z,77.27
2022-12-19T04:16:21.105Z,77.66
2022-12-19T04:18:33.965Z,77.59
2022-12-19T04:20:59.079Z,77.29
2022-12-19T04:23:37.586Z,77.86
2022-12-19T04:25:54.596Z,77.38
2022-12-19T04:28:18.781Z,77.21
2022-12-19T04:30:36.713Z,77.34
2022-12-19T04:32:50.548Z,77.45
2022-12-19T04:35:03.084Z,77.21
2022-12-19T04:37:14.746Z,77.05
2022-12-19T04:39:26.429Z,77.24
2022-12-19T04:41:38.117Z,77.06
2022-12-19T04:43:50.316Z,77.02
2022-12-19T04:46:02.002Z,76.98
2022-12-19T04:48:13.639Z,77.21
2022-12-19T04:50:25.787Z,77.07
2022-12-19T04:52:37.371Z,77.20
2022-12-19T04:54:49.165Z,77.47
2022-12-19T04:57:00.753Z,77.22
2022-12-19T04:59:12.639Z,77.07
2022-12-19T05:01:25.214Z,77.43
2022-12-19T05:03:37.505Z,76.95
2022-12-19T05:05:49.543Z,76.98
2022-12-19T05:08:01.649Z,77.05
2022-12-19T05:10:13.435Z,76.98
2022-12-19T05:12:25.256Z,77.00
2022-12-19T05:14:37.014Z,76.76
2022-12-19T05:16:49.212Z,76.73
2022-12-19T05:19:02.331Z,77.16
2022-12-19T05:21:13.903Z,77.15
2022-12-19T05:23:27.241Z,77.31
2022-12-19T05:25:39.032Z,77.18
2022-12-19T05:27:50.722Z,77.24
2022-12-19T05:30:02.515Z,76.88
2022-12-19T05:32:14.409Z,77.24
2022-12-19T05:34:26.193Z,76.77
2022-12-19T05:36:37.895Z,76.62
2022-12-19T05:38:49.973Z,76.82
2022-12-19T05:41:10.379Z,76.67
2022-12-19T05:43:22.357Z,77.55
2022-12-19T05:45:34.055Z,77.07
2022-12-19T05:47:49.528Z,77.24
2022-12-19T05:50:02.234Z,77.01
2022-12-19T05:52:14.024Z,77.27
2022-12-19T05:54:26.326Z,76.71
2022-12-19T05:56:37.914Z,77.20
2022-12-19T05:58:50.721Z,77.04
2022-12-19T06:01:11.737Z,77.10
2022-12-19T06:03:23.423Z,77.10
2022-12-19T06:05:38.483Z,77.51
2022-12-19T06:07:50.376Z,77.51
2022-12-19T06:10:02.372Z,77.12
2022-12-19T06:12:14.515Z,77.22
2022-12-19T06:14:26.880Z,77.36
2022-12-19T06:16:38.590Z,77.61
2022-12-19T06:18:50.904Z,77.68
2022-12-19T06:21:06.646Z,77.68
2022-12-19T06:23:19.361Z,77.20
2022-12-19T06:25:31.365Z,77.04
2022-12-19T06:27:42.938Z,77.40
2022-12-19T06:29:54.954Z,77.28
2022-12-19T06:32:06.822Z,77.23
2022-12-19T06:34:39.891Z,77.12
2022-12-19T06:36:57.536Z,77.08
2022-12-19T06:39:13.110Z,77.36
2022-12-19T06:41:44.508Z,77.68
2022-12-19T06:44:00.801Z,77.23
2022-12-19T06:46:12.813Z,77.16
2022-12-19T06:48:28.036Z,76.88
2022-12-19T06:50:40.023Z,77.49
2022-12-19T06:52:52.114Z,77.36
2022-12-19T06:55:04.722Z,77.34
2022-12-19T06:57:16.514Z,77.61
2022-12-19T06:59:28.946Z,76.91
2022-12-19T07:01:44.083Z,77.17
2022-12-19T07:03:57.315Z,77.53
2022-12-19T07:06:08.793Z,77.50
2022-12-19T07:08:20.948Z,77.44
2022-12-19T07:10:33.191Z,77.39
2022-12-19T07:12:45.389Z,77.90
2022-12-19T07:14:57.230Z,77.69
2022-12-19T07:17:09.276Z,77.58
2022-12-19T07:19:22.822Z,77.66
2022-12-19T07:21:35.721Z,77.15
2022-12-19T07:23:48.741Z,77.40
2022-12-19T07:26:01.354Z,77.28
2022-12-19T07:28:13.894Z,77.53
2022-12-19T07:30:25.857Z,77.42
2022-12-19T07:32:39.692Z,77.34
2022-12-19T07:34:51.273Z,77.14
2022-12-19T07:37:07.162Z,77.22
2022-12-19T07:39:19.260Z,77.11
2022-12-19T07:41:30.944Z,76.96
2022-12-19T07:43:42.870Z,76.77
2022-12-19T07:45:56.825Z,77.07
2022-12-19T07:48:08.777Z,76.97
2022-12-19T07:50:21.587Z,76.78
2022-12-19T07:52:32.969Z,76.74
2022-12-19T07:54:44.479Z,76.50
2022-12-19T07:56:56.485Z,76.32
2022-12-19T07:59:10.754Z,76.32
2022-12-19T08:01:22.915Z,75.92
2022-12-19T08:03:36.111Z,75.86
2022-12-19T08:05:47.739Z,75.76
2022-12-19T08:08:00.233Z,75.39
2022-12-19T08:10:14.918Z,75.62
2022-12-19T08:12:27.205Z,75.20
2022-12-19T08:14:39.262Z,74.87
2022-12-19T08:17:19.397Z,74.93
2022-12-19T08:19:27.459Z,74.97
2022-12-19T08:21:39.531Z,74.53
2022-12-19T08:23:51.145Z,74.73
2022-12-19T08:26:08.011Z,74.43
2022-12-19T08:28:20.112Z,74.28
2022-12-19T08:30:32.210Z,74.71
2022-12-19T08:32:45.425Z,74.52
2022-12-19T08:34:57.257Z,73.56
2022-12-19T08:37:09.441Z,73.85
2022-12-19T08:39:21.516Z,73.40
2022-12-19T08:41:33.408Z,72.87
2022-12-19T08:43:50.934Z,73.20
2022-12-19T08:46:03.650Z,73.16
2022-12-19T08:48:17.808Z,72.92
2022-12-19T08:50:29.906Z,72.76
2022-12-19T08:52:41.985Z,72.71
2022-12-19T08:54:53.782Z,71.81
2022-12-19T08:57:11.004Z,71.64
2022-12-19T08:59:31.555Z,71.84
2022-12-19T09:01:43.951Z,72.27
2022-12-19T09:05:04.763Z,71.95
2022-12-19T09:06:31.723Z,71.32
2022-12-19T09:08:44.040Z,71.25
2022-12-19T09:10:59.955Z,71.27
2022-12-19T09:13:12.356Z,70.68
2022-12-19T09:15:24.587Z,70.78
2022-12-19T09:17:36.321Z,70.98
2022-12-19T09:19:48.617Z,70.73
2022-12-19T09:22:00.925Z,70.24
2022-12-19T09:24:13.125Z,70.13
2022-12-19T09:26:27.378Z,70.10
2022-12-19T09:28:46.433Z,69.97
2022-12-19T09:31:04.333Z,69.90
2022-12-19T09:33:16.152Z,70.31
2022-12-19T09:35:30.549Z,70.02
2022-12-19T09:37:42.300Z,69.75
2022-12-19T09:39:58.721Z,69.77
2022-12-19T09:42:40.635Z,70.06
2022-12-19T09:45:16.995Z,70.04
2022-12-19T09:47:43.905Z,70.43
2022-12-19T09:49:58.762Z,70.22
2022-12-19T09:52:46.701Z,69.88
2022-12-19T09:55:21.529Z,69.71
2022-12-19T09:57:48.353Z,69.75
2022-12-19T10:00:06.336Z,69.49
2022-12-19T10:02:34.375Z,69.03
2022-12-19T10:05:31.141Z,68.92
2022-12-19T10:08:01.766Z,68.47
2022-12-19T10:12:36.267Z,67.99
2022-12-19T10:12:59.628Z,68.11
2022-12-19T10:15:20.949Z,67.63
2022-12-19T10:17:58.011Z,67.61
2022-12-19T10:20:16.272Z,67.45
2022-12-19T10:22:42.403Z,67.18
2022-12-19T10:25:21.029Z,66.93
2022-12-19T10:27:57.237Z,66.96
2022-12-19T10:30:21.263Z,66.71
2022-12-19T10:32:47.000Z,66.86
2022-12-19T10:34:59.581Z,66.95
2022-12-19T10:37:26.881Z,66.50
2022-12-19T10:39:54.815Z,66.75
2022-12-19T10:42:19.731Z,66.20
2022-12-19T10:44:38.540Z,66.16
2022-12-19T10:46:50.625Z,66.12
2022-12-19T10:49:18.042Z,66.73
2022-12-19T10:51:32.619Z,66.90
2022-12-19T10:53:54.105Z,67.20
2022-12-19T10:56:20.720Z,66.37
2022-12-19T10:58:35.694Z,66.35
2022-12-19T11:01:02.491Z,66.13
2022-12-19T11:03:16.935Z,66.06
2022-12-19T11:05:42.556Z,66.38
2022-12-19T11:08:04.106Z,66.27
2022-12-19T11:11:43.503Z,66.06
2022-12-19T11:17:52.175Z,66.06
2022-12-19T11:19:38.970Z,66.28
2022-12-19T11:27:35.081Z,66.66
2022-12-19T11:29:32.067Z,66.67
2022-12-19T11:30:41.545Z,67.52
2022-12-19T11:30:45.724Z,67.06
2022-12-19T11:32:36.520Z,67.61
2022-12-19T11:34:50.165Z,67.75
2022-12-19T11:37:21.446Z,67.35
2022-12-19T11:39:46.928Z,66.32
2022-12-19T11:42:24.211Z,66.18
2022-12-19T11:45:01.699Z,66.09
2022-12-19T11:47:28.550Z,65.56
2022-12-19T11:50:24.789Z,65.61
2022-12-19T11:53:13.013Z,64.78
2022-12-19T11:55:26.755Z,65.33
2022-12-19T11:57:41.416Z,64.98
2022-12-19T11:59:56.454Z,64.47
2022-12-19T12:02:39.099Z,64.39
2022-12-19T12:05:06.552Z,65.21
2022-12-19T12:07:41.481Z,64.95
2022-12-19T12:18:25.554Z,64.78
2022-12-19T12:21:04.074Z,66.14
2022-12-19T12:26:41.350Z,65.93
2022-12-19T12:31:06.482Z,65.54
2022-12-19T12:31:21.869Z,65.59
2022-12-19T12:31:23.448Z,65.40
2022-12-19T12:31:44.604Z,65.57
2022-12-19T12:31:53.070Z,65.35
2022-12-19T12:35:40.929Z,65.56
2022-12-19T12:38:40.448Z,65.47
2022-12-19T12:41:10.077Z,65.92
2022-12-19T12:43:51.256Z,65.85
2022-12-19T12:46:05.137Z,66.04
2022-12-19T12:48:41.153Z,66.09
2022-12-19T12:50:55.378Z,65.75
2022-12-19T12:53:10.057Z,65.97
2022-12-19T12:55:30.048Z,65.97
2022-12-19T12:57:41.838Z,65.84
2022-12-19T13:00:26.794Z,65.89
2022-12-19T13:02:39.008Z,65.21
2022-12-19T13:04:58.868Z,65.48
2022-12-19T13:07:27.047Z,65.45
2022-12-19T13:09:39.965Z,65.02
2022-12-19T13:12:14.799Z,65.02
2022-12-19T13:14:37.234Z,64.50
2022-12-19T13:16:50.968Z,64.71
2022-12-19T13:19:24.185Z,64.17
2022-12-19T13:22:09.545Z,64.94
2022-12-19T13:24:23.785Z,64.70
2022-12-19T13:26:50.153Z,65.07
2022-12-19T13:29:33.036Z,64.74
2022-12-19T13:32:09.305Z,64.42
2022-12-19T13:34:21.099Z,64.56
2022-12-19T13:40:00.222Z,64.72
2022-12-19T13:40:00.760Z,64.77
2022-12-19T13:42:40.396Z,64.46
2022-12-19T13:44:54.809Z,64.47
2022-12-19T13:47:06.640Z,64.75
2022-12-19T13:49:27.484Z,64.29
2022-12-19T13:52:02.472Z,64.16
2022-12-19T13:54:20.001Z,64.21
2022-12-19T13:56:32.117Z,64.23
2022-12-19T13:58:49.833Z,64.33
2022-12-19T14:01:07.811Z,64.41
2022-12-19T14:03:40.837Z,64.39
2022-12-19T14:06:15.996Z,64.43
2022-12-19T14:08:25.665Z,64.25
2022-12-19T14:11:40.295Z,64.55
2022-12-19T14:13:54.102Z,64.90
2022-12-19T14:16:18.594Z,64.92
2022-12-19T14:18:44.411Z,64.38
2022-12-19T14:22:06.855Z,64.67
2022-12-19T14:23:50.923Z,65.40
2022-12-19T14:28:17.163Z,64.82
2022-12-19T14:28:54.693Z,64.86
2022-12-19T14:31:11.866Z,64.97
2022-12-19T14:33:45.424Z,64.86
2022-12-19T14:36:14.667Z,65.18
2022-12-19T14:39:23.844Z,65.02
2022-12-19T14:41:09.562Z,64.83
2022-12-19T14:43:59.030Z,64.68
2022-12-19T14:52:35.101Z,65.05
2022-12-19T14:54:03.014Z,64.95
2022-12-19T14:54:29.350Z,65.31
2022-12-19T14:55:18.604Z,65.37
2022-12-19T14:56:59.045Z,65.28
2022-12-19T14:59:35.930Z,64.68
2022-12-19T15:01:53.938Z,65.66
2022-12-19T15:04:53.140Z,64.91
2022-12-19T15:07:08.677Z,65.31
2022-12-19T15:11:03.774Z,65.63
2022-12-19T15:14:04.135Z,65.27
2022-12-19T15:15:18.408Z,65.53
2022-12-19T15:17:29.994Z,65.54
2022-12-19T15:19:41.987Z,65.45
2022-12-19T15:21:53.880Z,66.24
2022-12-19T15:24:05.879Z,65.53
2022-12-19T15:26:32.849Z,65.43
2022-12-19T15:28:51.296Z,65.27
2022-12-19T15:31:18.799Z,65.80
2022-12-19T15:33:35.659Z,65.21
2022-12-19T15:35:47.838Z,65.13
2022-12-19T15:37:59.938Z,65.65
2022-12-19T15:40:17.071Z,65.05
2022-12-19T15:42:29.657Z,65.14
2022-12-19T15:44:43.831Z,65.14
2022-12-19T15:46:55.842Z,65.11
2022-12-19T15:49:15.519Z,65.49
2022-12-19T15:51:27.398Z,65.73
2022-12-19T15:53:41.364Z,65.75
2022-12-19T15:55:56.509Z,65.97
2022-12-19T15:58:08.361Z,66.03
2022-12-19T16:00:27.859Z,66.29
2022-12-19T16:05:12.229Z,67.06
2022-12-19T16:07:27.775Z,67.46
2022-12-19T16:09:40.280Z,68.04
2022-12-19T16:11:54.487Z,68.39
2022-12-19T16:14:12.158Z,68.66
2022-12-19T16:16:25.549Z,69.43
2022-12-19T16:18:38.122Z,69.86
2022-12-19T16:20:50.195Z,70.17
2022-12-19T16:23:02.706Z,69.69
2022-12-19T16:25:15.216Z,69.63
2022-12-19T16:27:31.916Z,69.93
2022-12-19T16:29:43.697Z,70.04
2022-12-19T16:31:55.420Z,70.26
2022-12-19T16:34:19.976Z,70.44
2022-12-19T16:36:31.867Z,70.01
2022-12-19T16:38:43.967Z,70.28
2022-12-19T16:40:57.396Z,70.21
2022-12-19T16:43:28.847Z,70.96
2022-12-19T16:45:40.552Z,70.26
2022-12-19T16:47:53.051Z,70.14
2022-12-19T16:50:18.343Z,70.95
2022-12-19T16:52:30.647Z,70.87
2022-12-19T16:54:42.349Z,71.04
2022-12-19T16:56:54.801Z,70.97
2022-12-19T16:59:15.751Z,70.76
2022-12-19T17:01:29.290Z,70.49
2022-12-19T17:03:44.932Z,71.06
2022-12-19T17:05:56.856Z,70.91
2022-12-19T17:08:13.687Z,71.16
2022-12-19T17:10:33.350Z,71.32
2022-12-19T17:12:49.421Z,71.72
2022-12-19T17:15:02.672Z,71.60
2022-12-19T17:17:16.085Z,72.11
2022-12-19T17:19:36.262Z,72.77
2022-12-19T17:21:49.278Z,73.13
2022-12-19T17:24:01.195Z,73.32
2022-12-19T17:26:17.593Z,73.98
2022-12-19T17:28:30.280Z,74.19
2022-12-19T17:30:48.789Z,74.66
2022-12-19T17:33:00.824Z,75.13
2022-12-19T17:35:22.523Z,74.78
2022-12-19T17:37:37.824Z,75.19
2022-12-19T17:39:49.421Z,75.79
2022-12-19T17:42:13.889Z,75.72
2022-12-19T17:44:26.062Z,76.24
2022-12-19T17:46:39.418Z,75.85
2022-12-19T17:48:54.178Z,76.62
2022-12-19T17:51:06.377Z,76.95
2022-12-19T17:53:18.479Z,77.02
2022-12-19T17:55:31.402Z,77.15
2022-12-19T17:57:43.592Z,77.51
2022-12-19T17:59:55.811Z,78.05
2022-12-19T18:02:25.334Z,78.48
2022-12-19T18:04:42.937Z,78.78
2022-12-19T18:06:56.042Z,78.84
2022-12-19T18:09:31.694Z,79.19
2022-12-19T18:11:51.717Z,78.98
2022-12-19T18:14:05.739Z,78.66
2022-12-19T18:16:23.073Z,79.95
2022-12-19T18:18:36.374Z,79.84
2022-12-19T18:20:49.236Z,79.93
2022-12-19T18:23:03.156Z,79.94
2022-12-19T18:25:22.199Z,80.20
2022-12-19T18:27:37.769Z,80.62
2022-12-19T18:29:50.510Z,80.53
2022-12-19T18:32:02.459Z,80.10
2022-12-19T18:34:26.231Z,80.43
2022-12-19T18:36:42.862Z,80.38
2022-12-19T18:38:56.727Z,80.38
2022-12-19T18:41:11.895Z,80.74
2022-12-19T18:43:25.106Z,80.45
2022-12-19T18:45:41.605Z,81.05
2022-12-19T18:48:02.574Z,81.17
2022-12-19T18:50:19.799Z,81.02
2022-12-19T18:52:32.520Z,81.06
2022-12-19T18:54:45.338Z,81.59
2022-12-19T18:56:58.157Z,81.42
2022-12-19T18:59:11.591Z,81.83
2022-12-19T19:01:28.740Z,81.78
2022-12-19T19:03:44.970Z,81.60
2022-12-19T19:05:57.803Z,82.17
2022-12-19T19:08:18.748Z,82.20
2022-12-19T19:10:36.162Z,82.71
2022-12-19T19:12:56.091Z,82.22
2022-12-19T19:15:09.421Z,82.56
2022-12-19T19:17:40.417Z,82.51
2022-12-19T19:20:10.677Z,82.09
2022-12-19T19:22:26.591Z,82.72
2022-12-19T19:24:39.072Z,82.19
2022-12-19T19:26:51.571Z,83.00
2022-12-19T19:29:04.238Z,83.20
2022-12-19T19:31:19.129Z,82.79
2022-12-19T19:33:36.979Z,83.05
2022-12-19T19:35:54.942Z,83.89
2022-12-19T19:38:08.959Z,83.44
2022-12-19T19:40:20.764Z,83.42
2022-12-19T19:42:33.149Z,83.42
2022-12-19T19:44:46.300Z,83.47
2022-12-19T19:46:58.427Z,83.78
2022-12-19T19:49:10.684Z,83.97
2022-12-19T19:51:22.868Z,84.27
2022-12-19T19:53:36.398Z,84.13
2022-12-19T19:55:57.612Z,84.31
2022-12-19T19:58:09.809Z,84.18
2022-12-19T20:00:22.627Z,84.60
2022-12-19T20:02:35.136Z,84.53
2022-12-19T20:04:47.453Z,84.60
2022-12-19T20:06:59.732Z,84.91
2022-12-19T20:09:11.526Z,84.19
2022-12-19T20:11:23.211Z,84.28
2022-12-19T20:13:35.325Z,85.02
2022-12-19T20:15:49.926Z,84.72
2022-12-19T20:18:01.967Z,84.98
2022-12-19T20:20:13.853Z,84.47
2022-12-19T20:22:26.155Z,85.39
2022-12-19T20:24:38.047Z,85.20
2022-12-19T20:26:49.732Z,85.21
2022-12-19T20:29:02.242Z,85.20
2022-12-19T20:31:14.082Z,85.02
2022-12-19T20:33:26.536Z,85.09
2022-12-19T20:35:38.427Z,85.10
2022-12-19T20:37:50.533Z,85.28
2022-12-19T20:40:02.131Z,84.83
2022-12-19T20:42:14.004Z,85.46
2022-12-19T20:44:26.305Z,85.20
2022-12-19T20:46:38.957Z,85.17
2022-12-19T20:48:51.419Z,85.18
2022-12-19T20:51:04.952Z,86.00
2022-12-19T20:53:16.433Z,85.80
2022-12-19T20:55:28.119Z,85.59
2022-12-19T20:57:39.983Z,85.32
2022-12-19T20:59:52.620Z,85.64
2022-12-19T21:02:05.057Z,85.73
2022-12-19T21:04:17.598Z,85.68
2022-12-19T21:06:29.971Z,86.31
2022-12-19T21:08:42.346Z,85.58
2022-12-19T21:10:55.153Z,85.97
2022-12-19T21:13:06.945Z,86.01
2022-12-19T21:15:51.059Z,86.17
2022-12-19T21:18:03.335Z,86.53
2022-12-19T21:20:15.606Z,86.37
2022-12-19T21:22:27.597Z,86.22
2022-12-19T21:24:39.818Z,86.44
2022-12-19T21:26:58.143Z,86.30
2022-12-19T21:29:11.663Z,86.62
2022-12-19T21:31:27.354Z,86.35
2022-12-19T21:33:39.650Z,86.40
2022-12-19T21:35:51.439Z,86.67
2022-12-19T21:38:04.797Z,87.19
2022-12-19T21:40:23.544Z,86.54
2022-12-19T21:42:36.672Z,86.67
2022-12-19T21:44:50.752Z,87.15
2022-12-19T21:47:07.990Z,87.36
2022-12-19T21:49:26.367Z,86.69
2022-12-19T21:51:38.988Z,86.83
2022-12-19T21:53:57.175Z,86.51
2022-12-19T21:56:22.342Z,86.43
2022-12-19T21:58:36.386Z,86.63
2022-12-19T22:00:49.400Z,86.18
2022-12-19T22:03:15.506Z,86.63
2022-12-19T22:05:28.207Z,86.44
2022-12-19T22:07:42.274Z,86.58
2022-12-19T22:09:55.784Z,86.75
2022-12-19T22:12:13.237Z,86.23
2022-12-19T22:14:29.756Z,86.30
2022-12-19T22:16:44.686Z,86.70
2022-12-19T22:19:07.465Z,86.75
2022-12-19T22:21:20.954Z,86.26
2022-12-19T22:23:33.438Z,86.45
2022-12-19T22:25:45.288Z,86.79
2022-12-19T22:27:57.121Z,86.75
2022-12-19T22:30:11.308Z,86.41
2022-12-19T22:32:23.366Z,86.74
2022-12-19T22:34:35.463Z,86.37
2022-12-19T22:36:49.125Z,86.79
2022-12-19T22:39:04.236Z,86.41
2022-12-19T22:41:18.109Z,86.46
2022-12-19T22:43:30.412Z,86.12
2022-12-19T22:45:42.185Z,86.14
2022-12-19T22:47:54.287Z,86.60
2022-12-19T22:50:07.012Z,86.47
2022-12-19T22:52:19.966Z,86.40
2022-12-19T22:54:32.426Z,86.35
2022-12-19T22:56:44.012Z,86.78
2022-12-19T22:58:59.387Z,86.55
2022-12-19T23:01:14.943Z,86.75
2022-12-19T23:03:27.229Z,87.33
2022-12-19T23:05:39.363Z,86.94
2022-12-19T23:07:51.149Z,86.30
2022-12-19T23:10:03.657Z,86.64
2022-12-19T23:12:15.342Z,87.03
2022-12-19T23:14:27.012Z,86.62
2022-12-19T23:16:38.984Z,86.93
2022-12-19T23:18:51.022Z,86.83
2022-12-19T23:21:09.450Z,86.74
2022-12-19T23:23:21.565Z,86.80
2022-12-19T23:25:38.274Z,86.78
2022-12-19T23:27:50.260Z,86.91
2022-12-19T23:30:01.900Z,86.65
2022-12-19T23:32:13.933Z,86.56
2022-12-19T23:34:26.044Z,86.16
2022-12-19T23:39:11.740Z,86.24
2022-12-19T23:41:24.860Z,86.47
2022-12-19T23:43:37.781Z,86.25
2022-12-19T23:45:52.265Z,85.95
2022-12-19T23:48:04.531Z,86.13
2022-12-19T23:50:16.737Z,86.25
2022-12-19T23:52:28.727Z,86.30
2022-12-19T23:54:40.415Z,86.13
2022-12-19T23:56:53.655Z,86.13
2022-12-19T23:59:05.937Z,85.97
